createdAt,value
2022-08-02T00:00:35.120Z,24.55
2022-08-02T00:03:04.552Z,24.53
2022-08-02T00:05:32.508Z,24.49
2022-08-02T00:08:00.543Z,24.35
2022-08-02T00:10:28.994Z,24.27
2022-08-02T00:12:58.846Z,24.28
2022-08-02T00:15:27.251Z,24.28
2022-08-02T00:17:55.302Z,24.25
2022-08-02T00:20:24.753Z,24.30
2022-08-02T00:22:52.780Z,24.29
2022-08-02T00:25:20.881Z,24.28
2022-08-02T00:27:48.824Z,24.35
2022-08-02T00:30:16.869Z,24.27
2022-08-02T00:32:44.860Z,24.23
2022-08-02T00:35:12.809Z,24.21
2022-08-02T00:37:42.964Z,24.19
2022-08-02T00:40:11.829Z,24.20
2022-08-02T00:42:40.118Z,24.22
2022-08-02T00:45:09.472Z,24.18
2022-08-02T00:47:37.667Z,24.19
2022-08-02T00:50:06.650Z,24.18
2022-08-02T00:52:34.670Z,24.17
2022-08-02T00:55:04.230Z,24.10
2022-08-02T00:57:32.218Z,24.05
2022-08-02T01:00:00.218Z,24.04
2022-08-02T01:02:28.229Z,24.07
2022-08-02T01:04:56.170Z,24.00
2022-08-02T01:07:24.130Z,23.96
2022-08-02T01:09:52.106Z,23.94
2022-08-02T01:12:21.810Z,23.97
2022-08-02T01:14:52.380Z,23.95
2022-08-02T01:17:29.498Z,23.93
2022-08-02T01:20:06.153Z,23.91
2022-08-02T01:23:01.613Z,23.86
2022-08-02T01:25:51.621Z,23.75
2022-08-02T01:28:37.703Z,23.48
2022-08-02T01:31:12.073Z,23.44
2022-08-02T01:33:46.512Z,23.52
2022-08-02T01:36:18.827Z,23.54
2022-08-02T01:38:50.598Z,23.57
2022-08-02T01:41:21.432Z,23.53
2022-08-02T01:43:54.859Z,23.50
2022-08-02T01:46:24.301Z,23.51
2022-08-02T01:48:54.698Z,23.49
2022-08-02T01:51:44.075Z,23.37
2022-08-02T01:54:15.852Z,23.28
2022-08-02T01:56:45.619Z,23.30
2022-08-02T01:59:19.806Z,23.32
2022-08-02T02:01:50.811Z,23.31
2022-08-02T02:04:22.029Z,23.31
2022-08-02T02:06:51.012Z,23.34
2022-08-02T02:09:20.228Z,23.34
2022-08-02T02:12:12.001Z,23.35
2022-08-02T02:14:40.040Z,23.29
2022-08-02T02:17:09.292Z,23.20
2022-08-02T02:20:00.115Z,23.16
2022-08-02T02:22:28.265Z,23.13
2022-08-02T02:24:56.407Z,23.13
2022-08-02T02:27:24.989Z,23.11
2022-08-02T02:29:55.656Z,23.11
2022-08-02T02:32:28.828Z,23.14
2022-08-02T02:34:57.394Z,23.16
2022-08-02T02:37:29.155Z,23.13
2022-08-02T02:39:59.287Z,23.11
2022-08-02T02:42:30.312Z,23.08
2022-08-02T02:45:01.153Z,23.01
2022-08-02T02:47:41.115Z,22.92
2022-08-02T02:50:10.980Z,22.90
2022-08-02T02:52:40.823Z,22.93
2022-08-02T02:55:10.694Z,22.92
2022-08-02T02:57:40.115Z,22.94
2022-08-02T03:00:13.161Z,22.90
2022-08-02T03:02:43.552Z,22.91
2022-08-02T03:05:13.057Z,22.82
2022-08-02T03:07:41.309Z,22.69
2022-08-02T03:10:10.814Z,22.55
2022-08-02T03:12:39.674Z,22.58
2022-08-02T03:15:11.528Z,22.57
2022-08-02T03:17:41.170Z,22.56
2022-08-02T03:20:12.003Z,22.57
2022-08-02T03:22:40.045Z,22.55
2022-08-02T03:25:09.614Z,22.56
2022-08-02T03:27:37.947Z,22.54
2022-08-02T03:30:08.307Z,22.58
2022-08-02T03:32:40.073Z,22.61
2022-08-02T03:35:10.447Z,22.59
2022-08-02T03:37:39.401Z,22.47
2022-08-02T03:40:10.391Z,22.32
2022-08-02T03:42:40.180Z,22.23
2022-08-02T03:45:11.512Z,22.26
2022-08-02T03:47:41.719Z,22.29
2022-08-02T03:50:13.342Z,22.32
2022-08-02T03:52:43.512Z,22.39
2022-08-02T03:55:13.723Z,22.42
2022-08-02T03:57:43.199Z,22.46
2022-08-02T04:00:13.545Z,22.49
2022-08-02T04:02:43.202Z,22.53
2022-08-02T04:05:11.970Z,22.54
2022-08-02T04:08:33.250Z,22.50
2022-08-02T04:10:28.167Z,22.34
2022-08-02T04:12:56.677Z,22.15
2022-08-02T04:15:25.527Z,21.99
2022-08-02T04:17:57.848Z,21.91
2022-08-02T04:20:29.663Z,21.98
2022-08-02T04:23:01.824Z,22.14
2022-08-02T04:25:35.696Z,22.25
2022-08-02T04:28:16.931Z,22.26
2022-08-02T04:30:47.609Z,22.26
2022-08-02T04:33:17.779Z,22.26
2022-08-02T04:35:46.519Z,22.22
2022-08-02T04:38:16.096Z,22.12
2022-08-02T04:40:52.351Z,22.04
2022-08-02T04:43:20.904Z,21.67
2022-08-02T04:45:50.726Z,21.56
2022-08-02T04:48:20.448Z,21.23
2022-08-02T04:50:48.417Z,21.33
2022-08-02T04:53:17.036Z,21.60
2022-08-02T04:55:45.010Z,21.75
2022-08-02T04:58:38.886Z,21.89
2022-08-02T05:01:01.182Z,21.99
2022-08-02T05:03:30.587Z,22.07
2022-08-02T05:05:58.543Z,22.09
2022-08-02T05:08:26.499Z,22.11
2022-08-02T05:10:54.504Z,22.16
2022-08-02T05:13:22.467Z,22.18
2022-08-02T05:15:50.991Z,22.21
2022-08-02T05:18:19.210Z,22.25
2022-08-02T05:20:48.526Z,22.26
2022-08-02T05:23:16.614Z,22.31
2022-08-02T05:25:44.544Z,22.36
2022-08-02T05:28:12.554Z,22.38
2022-08-02T05:30:41.485Z,22.39
2022-08-02T05:33:09.677Z,22.40
2022-08-02T05:35:37.693Z,22.47
2022-08-02T05:38:10.094Z,22.46
2022-08-02T05:40:54.263Z,22.47
2022-08-02T05:43:24.077Z,22.50
2022-08-02T05:45:53.710Z,22.56
2022-08-02T05:48:25.421Z,22.59
2022-08-02T05:51:04.737Z,22.60
2022-08-02T05:53:40.389Z,22.64
2022-08-02T05:56:19.454Z,22.69
2022-08-02T05:58:54.306Z,22.74
2022-08-02T06:01:29.546Z,22.82
2022-08-02T06:04:00.682Z,22.96
2022-08-02T06:06:31.120Z,22.98
2022-08-02T06:09:06.788Z,22.96
2022-08-02T06:11:38.194Z,22.99
2022-08-02T06:14:07.802Z,22.98
2022-08-02T06:16:42.238Z,22.90
2022-08-02T06:19:10.613Z,22.99
2022-08-02T06:22:32.483Z,23.08
2022-08-02T06:24:34.414Z,23.15
2022-08-02T06:27:03.749Z,23.22
2022-08-02T06:29:38.483Z,23.29
2022-08-02T06:32:09.029Z,23.31
2022-08-02T06:34:41.036Z,23.35
2022-08-02T06:37:20.218Z,23.36
2022-08-02T06:39:53.092Z,23.37
2022-08-02T06:42:27.234Z,23.45
2022-08-02T06:44:58.234Z,23.55
2022-08-02T06:47:27.340Z,23.59
2022-08-02T06:49:57.130Z,23.59
2022-08-02T06:52:29.609Z,23.58
2022-08-02T06:55:00.825Z,23.56
2022-08-02T06:57:29.866Z,23.44
2022-08-02T06:59:58.415Z,23.34
2022-08-02T07:02:26.805Z,23.48
2022-08-02T07:04:55.869Z,23.63
2022-08-02T07:07:24.103Z,23.69
2022-08-02T07:09:57.265Z,23.89
2022-08-02T07:12:31.853Z,24.03
2022-08-02T07:15:00.417Z,24.15
2022-08-02T07:17:28.616Z,24.18
2022-08-02T07:19:56.750Z,24.33
2022-08-02T07:22:27.032Z,24.29
2022-08-02T07:24:56.271Z,24.48
2022-08-02T07:27:24.885Z,24.65
2022-08-02T07:29:54.793Z,24.77
2022-08-02T07:32:26.489Z,24.76
2022-08-02T07:34:55.780Z,24.71
2022-08-02T07:37:54.296Z,24.71
2022-08-02T07:40:20.097Z,24.90
2022-08-02T07:42:49.777Z,25.17
2022-08-02T07:45:19.669Z,25.32
2022-08-02T07:47:47.799Z,25.21
2022-08-02T07:50:17.569Z,25.01
2022-08-02T07:52:46.823Z,25.08
2022-08-02T07:55:17.869Z,25.05
2022-08-02T07:57:47.129Z,25.20
2022-08-02T08:00:17.460Z,25.34
2022-08-02T08:02:48.200Z,25.29
2022-08-02T08:05:16.578Z,25.11
2022-08-02T08:07:44.557Z,25.19
2022-08-02T08:10:12.742Z,25.41
2022-08-02T08:12:40.815Z,25.43
2022-08-02T08:15:09.814Z,25.49
2022-08-02T08:17:38.624Z,25.66
2022-08-02T08:20:11.748Z,25.91
2022-08-02T08:22:42.068Z,26.00
2022-08-02T08:25:10.442Z,26.16
2022-08-02T08:27:38.450Z,26.22
2022-08-02T08:30:08.065Z,26.23
2022-08-02T08:32:36.135Z,26.25
2022-08-02T08:35:06.938Z,26.39
2022-08-02T08:37:36.736Z,26.51
2022-08-02T08:40:05.927Z,26.69
2022-08-02T08:42:34.600Z,26.24
2022-08-02T08:45:03.317Z,26.01
2022-08-02T08:47:35.755Z,25.86
2022-08-02T08:50:06.609Z,26.02
2022-08-02T08:52:44.564Z,26.24
2022-08-02T08:55:13.004Z,26.47
2022-08-02T08:57:43.109Z,26.57
2022-08-02T09:00:13.501Z,26.66
2022-08-02T09:02:42.812Z,26.68
2022-08-02T09:05:12.295Z,26.77
2022-08-02T09:07:44.738Z,26.97
2022-08-02T09:10:36.191Z,27.03
2022-08-02T09:13:37.859Z,27.09
2022-08-02T09:16:13.071Z,27.15
2022-08-02T09:18:44.913Z,27.05
2022-08-02T09:21:14.781Z,27.10
2022-08-02T09:23:46.169Z,27.23
2022-08-02T09:26:15.241Z,27.39
2022-08-02T09:28:44.761Z,27.21
2022-08-02T09:31:14.639Z,27.46
2022-08-02T09:33:44.124Z,27.67
2022-08-02T09:36:14.032Z,27.62
2022-08-02T09:38:52.716Z,27.76
2022-08-02T09:41:26.267Z,27.92
2022-08-02T09:44:04.326Z,28.00
2022-08-02T09:46:38.449Z,28.11
2022-08-02T09:49:09.411Z,28.13
2022-08-02T09:51:39.284Z,28.18
2022-08-02T09:54:09.443Z,28.33
2022-08-02T09:56:50.211Z,28.39
2022-08-02T09:59:20.142Z,28.10
2022-08-02T10:02:14.672Z,28.04
2022-08-02T10:04:53.036Z,28.31
2022-08-02T10:07:22.945Z,28.48
2022-08-02T10:09:51.868Z,28.45
2022-08-02T10:12:22.437Z,28.56
2022-08-02T10:14:52.529Z,28.43
2022-08-02T10:17:21.346Z,28.30
2022-08-02T10:20:02.999Z,28.31
2022-08-02T10:22:33.392Z,28.16
2022-08-02T10:25:04.148Z,28.22
2022-08-02T10:27:55.532Z,28.23
2022-08-02T10:30:24.566Z,28.47
2022-08-02T10:32:55.038Z,28.62
2022-08-02T10:35:26.708Z,28.67
2022-08-02T10:38:01.514Z,28.77
2022-08-02T10:40:44.737Z,28.79
2022-08-02T10:43:15.067Z,28.78
2022-08-02T10:45:44.182Z,28.75
2022-08-02T10:48:15.489Z,28.77
2022-08-02T10:50:56.447Z,28.63
2022-08-02T10:53:26.237Z,28.73
2022-08-02T10:55:55.235Z,28.82
2022-08-02T10:58:29.296Z,28.83
2022-08-02T11:00:59.077Z,28.90
2022-08-02T11:03:41.320Z,28.93
2022-08-02T11:06:25.098Z,28.90
2022-08-02T11:09:31.955Z,29.05
2022-08-02T11:12:03.903Z,29.12
2022-08-02T11:14:35.164Z,29.34
2022-08-02T11:17:16.959Z,29.57
2022-08-02T11:20:17.589Z,29.53
2022-08-02T11:22:47.067Z,29.41
2022-08-02T11:26:02.162Z,29.20
2022-08-02T11:28:26.111Z,29.28
2022-08-02T11:31:03.086Z,29.36
2022-08-02T11:33:36.901Z,29.25
2022-08-02T11:36:07.448Z,29.24
2022-08-02T11:38:35.721Z,29.20
2022-08-02T11:41:06.441Z,29.32
2022-08-02T11:43:38.688Z,29.62
2022-08-02T11:46:14.363Z,29.41
2022-08-02T11:48:44.002Z,29.42
2022-08-02T11:51:14.691Z,29.54
2022-08-02T11:53:45.981Z,29.61
2022-08-02T11:56:24.829Z,29.72
2022-08-02T11:59:07.528Z,29.72
2022-08-02T12:01:45.832Z,29.83
2022-08-02T12:04:19.275Z,29.72
2022-08-02T12:06:58.772Z,29.87
2022-08-02T12:09:28.771Z,30.12
2022-08-02T12:11:57.584Z,30.14
2022-08-02T12:14:27.677Z,30.14
2022-08-02T12:17:15.038Z,30.16
2022-08-02T12:19:44.089Z,30.13
2022-08-02T12:22:18.549Z,30.02
2022-08-02T12:24:49.028Z,29.84
2022-08-02T12:27:31.473Z,29.98
2022-08-02T12:30:01.833Z,30.15
2022-08-02T12:32:31.779Z,30.09
2022-08-02T12:35:08.304Z,30.18
2022-08-02T12:37:37.335Z,30.35
2022-08-02T12:40:25.408Z,30.40
2022-08-02T12:42:56.963Z,30.42
2022-08-02T12:45:25.484Z,30.44
2022-08-02T12:47:56.793Z,30.41
2022-08-02T12:50:27.664Z,30.29
2022-08-02T12:53:05.606Z,30.37
2022-08-02T12:56:01.875Z,30.56
2022-08-02T12:58:26.650Z,30.55
2022-08-02T13:00:57.378Z,30.57
2022-08-02T13:04:10.373Z,30.63
2022-08-02T13:06:41.120Z,30.76
2022-08-02T13:09:03.465Z,30.78
2022-08-02T13:11:31.549Z,30.89
2022-08-02T13:13:59.520Z,31.05
2022-08-02T13:16:30.771Z,31.18
2022-08-02T13:19:01.241Z,31.47
2022-08-02T13:21:40.609Z,31.64
2022-08-02T13:24:33.091Z,31.57
2022-08-02T13:27:08.043Z,31.53
2022-08-02T13:29:37.245Z,31.57
2022-08-02T13:32:05.479Z,31.69
2022-08-02T13:34:34.842Z,31.72
2022-08-02T13:37:03.284Z,31.54
2022-08-02T13:39:31.308Z,31.57
2022-08-02T13:41:59.350Z,31.83
2022-08-02T13:44:27.279Z,31.99
2022-08-02T13:46:55.309Z,31.85
2022-08-02T13:49:51.198Z,32.01
2022-08-02T13:52:13.660Z,32.12
2022-08-02T13:54:41.836Z,32.34
2022-08-02T13:57:09.772Z,32.43
2022-08-02T13:59:57.624Z,32.40
2022-08-02T14:02:26.356Z,32.40
2022-08-02T14:04:54.283Z,32.37
2022-08-02T14:07:23.731Z,32.46
2022-08-02T14:09:51.686Z,32.41
2022-08-02T14:12:20.533Z,32.36
2022-08-02T14:14:48.556Z,32.60
2022-08-02T14:17:18.799Z,32.86
2022-08-02T14:19:47.025Z,32.95
2022-08-02T14:22:15.019Z,33.05
2022-08-02T14:24:44.656Z,33.02
2022-08-02T14:27:13.559Z,32.87
2022-08-02T14:29:41.557Z,32.99
2022-08-02T14:32:10.250Z,33.18
2022-08-02T14:34:38.585Z,33.14
2022-08-02T14:37:06.595Z,33.37
2022-08-02T14:39:42.899Z,33.38
2022-08-02T14:42:23.977Z,33.39
2022-08-02T14:44:51.960Z,33.63
2022-08-02T14:47:20.167Z,33.56
2022-08-02T14:49:50.292Z,33.72
2022-08-02T14:52:19.028Z,34.01
2022-08-02T14:54:47.312Z,34.07
2022-08-02T14:57:15.579Z,34.07
2022-08-02T14:59:44.981Z,34.21
2022-08-02T15:02:13.817Z,34.27
2022-08-02T15:04:43.813Z,34.05
2022-08-02T15:07:13.211Z,33.99
2022-08-02T15:09:41.638Z,33.80
2022-08-02T15:12:10.754Z,33.67
2022-08-02T15:14:38.877Z,33.64
2022-08-02T15:17:08.615Z,33.98
2022-08-02T15:19:58.841Z,34.18
2022-08-02T15:22:24.750Z,34.03
2022-08-02T15:24:53.135Z,34.01
2022-08-02T15:27:21.243Z,34.36
2022-08-02T15:29:49.396Z,34.49
2022-08-02T15:32:19.832Z,34.42
2022-08-02T15:34:48.613Z,34.29
2022-08-02T15:37:16.557Z,33.98
2022-08-02T15:39:44.869Z,33.52
2022-08-02T15:42:13.697Z,33.19
2022-08-02T15:44:41.912Z,33.12
2022-08-02T15:47:09.960Z,33.29
2022-08-02T15:49:41.558Z,33.64
2022-08-02T15:52:10.500Z,33.40
2022-08-02T15:54:38.796Z,33.34
2022-08-02T15:57:06.993Z,33.46
2022-08-02T15:59:35.013Z,32.89
2022-08-02T16:02:03.374Z,32.60
2022-08-02T16:04:31.464Z,33.05
2022-08-02T16:07:01.356Z,33.34
2022-08-02T16:09:29.763Z,33.41
2022-08-02T16:11:57.830Z,33.82
2022-08-02T16:14:25.872Z,33.62
2022-08-02T16:16:53.889Z,32.97
2022-08-02T16:19:46.062Z,32.54
2022-08-02T16:22:13.876Z,32.25
2022-08-02T16:24:42.180Z,32.36
2022-08-02T16:27:10.145Z,32.85
2022-08-02T16:29:38.225Z,33.33
2022-08-02T16:32:06.918Z,33.50
2022-08-02T16:34:56.689Z,33.53
2022-08-02T16:37:24.756Z,33.22
2022-08-02T16:39:52.759Z,33.23
2022-08-02T16:42:25.406Z,33.31
2022-08-02T16:44:54.878Z,33.63
2022-08-02T16:47:43.557Z,33.88
2022-08-02T16:50:11.655Z,34.16
2022-08-02T16:52:41.346Z,33.48
2022-08-02T16:55:11.285Z,33.47
2022-08-02T16:57:43.267Z,33.31
2022-08-02T17:00:15.396Z,33.57
2022-08-02T17:02:44.439Z,33.82
2022-08-02T17:05:15.768Z,33.90
2022-08-02T17:08:08.276Z,34.10
2022-08-02T17:10:34.634Z,34.05
2022-08-02T17:13:11.262Z,33.55
2022-08-02T17:16:17.321Z,33.58
2022-08-02T17:18:28.898Z,33.68
2022-08-02T17:20:58.060Z,33.68
2022-08-02T17:24:03.898Z,33.79
2022-08-02T17:26:16.147Z,34.10
2022-08-02T17:29:14.389Z,33.71
2022-08-02T17:31:37.136Z,33.73
2022-08-02T17:34:07.445Z,33.85
2022-08-02T17:36:35.401Z,34.17
2022-08-02T17:41:53.105Z,34.33
2022-08-02T17:44:37.262Z,34.70
2022-08-02T17:47:08.461Z,34.87
2022-08-02T17:49:44.403Z,34.97
2022-08-02T17:52:52.468Z,35.06
2022-08-02T17:55:07.017Z,34.97
2022-08-02T17:57:56.002Z,34.68
2022-08-02T18:00:24.565Z,35.08
2022-08-02T18:02:55.563Z,35.20
2022-08-02T18:05:39.028Z,35.03
2022-08-02T18:08:10.011Z,35.06
2022-08-02T18:10:39.479Z,35.20
2022-08-02T18:13:07.723Z,35.06
2022-08-02T18:15:35.857Z,35.03
2022-08-02T18:18:04.161Z,35.08
2022-08-02T18:20:32.158Z,35.09
2022-08-02T18:23:00.412Z,35.22
2022-08-02T18:25:37.508Z,35.24
2022-08-02T18:28:15.379Z,35.12
2022-08-02T18:30:43.604Z,35.08
2022-08-02T18:33:58.937Z,34.82
2022-08-02T18:35:59.634Z,34.54
2022-08-02T18:38:30.476Z,34.17
2022-08-02T18:41:02.231Z,34.04
2022-08-02T18:46:21.196Z,33.03
2022-08-02T18:48:49.190Z,32.56
2022-08-02T18:51:18.640Z,32.23
2022-08-02T18:53:48.931Z,31.94
2022-08-02T18:56:20.026Z,31.71
2022-08-02T18:59:07.499Z,31.46
2022-08-02T19:01:45.039Z,31.34
2022-08-02T19:04:14.717Z,31.21
2022-08-02T19:06:42.663Z,31.06
2022-08-02T19:09:14.000Z,30.97
2022-08-02T19:11:47.235Z,30.83
2022-08-02T19:14:24.007Z,30.73
2022-08-02T19:16:57.082Z,30.54
2022-08-02T19:19:29.214Z,30.47
2022-08-02T19:22:26.486Z,30.39
2022-08-02T19:24:47.162Z,30.34
2022-08-02T19:27:20.710Z,30.23
2022-08-02T19:29:55.487Z,30.15
2022-08-02T19:32:40.240Z,30.16
2022-08-02T19:35:19.686Z,30.04
2022-08-02T19:37:59.500Z,29.98
2022-08-02T19:40:28.970Z,29.93
2022-08-02T19:44:27.557Z,29.82
2022-08-02T19:45:49.830Z,29.71
2022-08-02T19:48:24.020Z,29.71
2022-08-02T19:50:56.816Z,29.70
2022-08-02T19:53:47.777Z,29.60
2022-08-02T19:56:25.208Z,29.57
2022-08-02T19:58:54.880Z,29.57
2022-08-02T20:01:36.891Z,29.57
2022-08-02T20:04:07.558Z,29.46
2022-08-02T20:06:45.403Z,29.43
2022-08-02T20:09:14.018Z,29.41
2022-08-02T20:11:45.205Z,29.41
2022-08-02T20:14:13.836Z,29.43
2022-08-02T20:16:43.171Z,29.42
2022-08-02T20:19:14.258Z,29.27
2022-08-02T20:21:50.523Z,29.25
2022-08-02T20:24:22.586Z,29.22
2022-08-02T20:26:54.914Z,29.22
2022-08-02T20:29:42.750Z,29.18
2022-08-02T20:32:14.608Z,29.11
2022-08-02T20:34:42.914Z,29.08
2022-08-02T20:37:59.455Z,29.09
2022-08-02T20:40:06.108Z,29.00
2022-08-02T20:42:35.147Z,28.96
2022-08-02T20:45:03.115Z,28.93
2022-08-02T20:47:39.832Z,28.91
2022-08-02T20:50:30.685Z,28.87
2022-08-02T20:53:00.386Z,28.80
2022-08-02T20:55:31.097Z,28.77
2022-08-02T20:58:01.847Z,28.65
2022-08-02T21:00:31.880Z,28.54
2022-08-02T21:03:02.664Z,28.50
2022-08-02T21:05:43.657Z,28.52
2022-08-02T21:08:21.496Z,28.47
2022-08-02T21:10:52.269Z,28.47
2022-08-02T21:13:24.090Z,28.48
2022-08-02T21:15:53.231Z,28.46
2022-08-02T21:18:30.402Z,28.31
2022-08-02T21:21:08.792Z,28.30
2022-08-02T21:23:37.415Z,28.20
2022-08-02T21:26:06.623Z,28.24
2022-08-02T21:28:45.004Z,28.26
2022-08-02T21:31:14.980Z,28.30
2022-08-02T21:33:56.801Z,28.23
2022-08-02T21:36:30.663Z,28.22
2022-08-02T21:39:04.538Z,28.24
2022-08-02T21:41:39.786Z,28.23
2022-08-02T21:44:15.907Z,28.23
2022-08-02T21:46:45.477Z,28.23
2022-08-02T21:49:16.315Z,28.19
2022-08-02T21:51:49.234Z,28.17
2022-08-02T21:54:20.281Z,28.11
2022-08-02T21:56:52.111Z,28.00
2022-08-02T21:59:25.664Z,27.88
2022-08-02T22:01:56.814Z,27.77
2022-08-02T22:04:27.414Z,27.73
2022-08-02T22:06:56.002Z,27.75
2022-08-02T22:09:43.568Z,27.74
2022-08-02T22:12:17.743Z,27.60
2022-08-02T22:14:49.404Z,27.39
2022-08-02T22:17:21.643Z,27.10
2022-08-02T22:20:12.718Z,27.02
2022-08-02T22:22:41.996Z,26.89
2022-08-02T22:25:27.010Z,26.80
2022-08-02T22:28:35.302Z,26.71
2022-08-02T22:30:46.733Z,26.77
2022-08-02T22:33:41.939Z,26.68
2022-08-02T22:36:15.993Z,26.58
2022-08-02T22:38:44.824Z,26.62
2022-08-02T22:41:13.627Z,26.56
2022-08-02T22:43:42.163Z,26.66
2022-08-02T22:46:10.514Z,26.78
2022-08-02T22:48:43.866Z,26.81
2022-08-02T22:51:12.635Z,26.82
2022-08-02T22:53:42.920Z,26.83
2022-08-02T22:56:11.852Z,26.79
2022-08-02T22:58:49.252Z,34.22
2022-08-02T22:59:00.260Z,33.62
2022-08-02T23:01:28.356Z,26.73
2022-08-02T23:03:56.347Z,26.72
2022-08-02T23:06:24.295Z,26.67
2022-08-02T23:08:53.692Z,26.65
2022-08-02T23:11:23.137Z,26.58
2022-08-02T23:13:51.147Z,26.54
2022-08-02T23:16:39.728Z,26.51
2022-08-02T23:19:25.199Z,26.45
2022-08-02T23:22:01.661Z,26.42
2022-08-02T23:24:33.906Z,26.45
2022-08-02T23:27:02.281Z,26.39
2022-08-02T23:29:30.296Z,26.33
2022-08-02T23:31:59.029Z,26.28
2022-08-02T23:34:27.347Z,26.27
2022-08-02T23:36:55.323Z,26.25
2022-08-02T23:39:23.351Z,26.22
2022-08-02T23:41:55.067Z,26.13
2022-08-02T23:44:24.166Z,26.11
2022-08-02T23:46:52.866Z,26.15
2022-08-02T23:49:21.582Z,26.14
2022-08-02T23:51:50.019Z,26.13
2022-08-02T23:54:18.629Z,26.10
2022-08-02T23:56:46.912Z,25.98
2022-08-02T23:59:16.631Z,25.95
